Time;durP1;ratioP1;P1;durP2;ratioP2;P2;SDS_P1;SDS_P2;PMS_P1;PMS_P2;Temp;Humidity;BMP_temperature;BMP_pressure;BME280_temperature;BME280_humidity;BME280_pressure;Samples;Min_cycle;Max_cycle;Signal;HPM_P1;HPM_P2
2023/12/05 00:01:20;;;;;;;23.33;14.57;;;4.40;99.90;;;;;;5072692;28;20032;-78
2023/12/05 00:03:46;;;;;;;21.13;14.23;;;4.40;99.90;;;;;;5072693;28;20074;-78
2023/12/05 00:06:12;;;;;;;19.90;13.60;;;4.40;99.90;;;;;;5071343;28;20365;-78
2023/12/05 00:08:38;;;;;;;21.17;13.93;;;4.40;99.90;;;;;;5072882;28;20112;-78
2023/12/05 00:11:05;;;;;;;21.40;14.00;;;4.40;99.90;;;;;;5072738;28;20484;-78
2023/12/05 00:13:32;;;;;;;22.33;15.17;;;4.40;99.90;;;;;;5072941;28;20110;-78
2023/12/05 00:15:58;;;;;;;20.93;13.53;;;4.40;99.90;;;;;;5054554;28;20037;-78
2023/12/05 00:18:25;;;;;;;23.10;15.37;;;4.40;99.90;;;;;;5072639;28;20505;-79
2023/12/05 00:20:51;;;;;;;21.80;13.77;;;4.30;99.90;;;;;;5072723;28;20095;-79
2023/12/05 00:23:16;;;;;;;21.57;13.90;;;4.40;99.90;;;;;;5072731;28;20045;-78
2023/12/05 00:25:43;;;;;;;20.90;13.80;;;4.40;99.90;;;;;;5071350;28;20032;-79
2023/12/05 00:28:08;;;;;;;19.90;13.97;;;4.40;99.90;;;;;;5071190;28;20029;-78
2023/12/05 00:30:34;;;;;;;22.93;15.03;;;4.40;99.90;;;;;;5072518;28;20106;-78
2023/12/05 00:33:00;;;;;;;22.23;15.07;;;4.40;99.90;;;;;;5071182;28;20056;-78
2023/12/05 00:35:26;;;;;;;20.10;14.07;;;4.40;99.90;;;;;;5072411;28;20082;-79
2023/12/05 00:37:52;;;;;;;21.07;14.17;;;4.40;99.90;;;;;;5073799;28;20518;-79
2023/12/05 00:40:18;;;;;;;21.97;14.73;;;4.40;99.90;;;;;;5073840;28;20032;-78
2023/12/05 00:42:43;;;;;;;20.00;13.67;;;4.40;99.90;;;;;;5072849;28;20032;-79
2023/12/05 00:45:12;;;;;;;21.57;14.27;;;4.40;99.90;;;;;;5075017;28;20372;-79
2023/12/05 00:47:38;;;;;;;22.70;14.57;;;4.50;99.90;;;;;;5075734;28;20036;-79
2023/12/05 00:50:04;;;;;;;19.90;13.90;;;4.50;99.90;;;;;;5075003;28;20028;-79
2023/12/05 00:52:30;;;;;;;18.87;12.90;;;4.40;99.90;;;;;;5074835;28;20033;-78
2023/12/05 00:54:56;;;;;;;19.40;13.83;;;4.40;99.90;;;;;;5074437;28;20538;-78
2023/12/05 00:57:21;;;;;;;21.90;14.90;;;4.40;99.90;;;;;;5074773;28;20119;-78
2023/12/05 00:59:47;;;;;;;20.33;14.43;;;4.40;99.90;;;;;;5074743;28;20028;-77
2023/12/05 01:02:13;;;;;;;21.20;14.77;;;4.50;99.90;;;;;;5075464;28;20112;-79
2023/12/05 01:04:39;;;;;;;22.30;15.13;;;4.40;99.90;;;;;;5074656;28;20111;-78
2023/12/05 01:07:04;;;;;;;22.03;14.53;;;4.40;99.90;;;;;;5075972;28;20123;-78
2023/12/05 01:09:30;;;;;;;22.83;14.70;;;4.50;99.90;;;;;;5074601;28;20032;-78
2023/12/05 01:11:56;;;;;;;23.47;14.57;;;4.50;99.90;;;;;;5074272;28;20127;-78
2023/12/05 01:14:21;;;;;;;21.57;14.23;;;4.40;99.90;;;;;;5074473;28;20025;-78
2023/12/05 01:16:47;;;;;;;21.10;14.63;;;4.40;99.90;;;;;;5075456;28;20029;-78
2023/12/05 01:19:13;;;;;;;23.07;15.27;;;4.40;99.90;;;;;;5074490;28;20029;-78
2023/12/05 01:21:39;;;;;;;22.63;15.03;;;4.40;99.90;;;;;;5075441;28;20103;-78
2023/12/05 01:24:05;;;;;;;21.17;14.33;;;4.40;99.90;;;;;;5075540;28;20044;-79
2023/12/05 01:26:30;;;;;;;22.97;15.30;;;4.40;99.90;;;;;;5075802;28;20032;-79
2023/12/05 01:28:56;;;;;;;21.70;14.83;;;4.40;99.90;;;;;;5075356;28;20418;-78
2023/12/05 01:31:21;;;;;;;22.73;14.57;;;4.50;99.90;;;;;;5073802;28;20033;-79
2023/12/05 01:33:47;;;;;;;23.57;15.80;;;4.40;99.90;;;;;;5074172;28;20024;-78
2023/12/05 01:36:14;;;;;;;24.40;15.50;;;4.40;99.90;;;;;;5075429;28;20032;-78
2023/12/05 01:38:39;;;;;;;23.33;15.30;;;4.40;99.90;;;;;;5073959;28;20115;-78
2023/12/05 01:41:07;;;;;;;24.43;15.37;;;4.50;99.90;;;;;;5075217;28;20113;-78
2023/12/05 01:43:33;;;;;;;23.70;16.17;;;4.40;99.90;;;;;;5073915;28;20033;-78
2023/12/05 01:45:59;;;;;;;22.43;14.93;;;4.40;99.90;;;;;;5073746;28;20028;-78
2023/12/05 01:48:26;;;;;;;24.00;15.43;;;4.60;99.90;;;;;;5073789;28;20035;-78
2023/12/05 01:50:53;;;;;;;22.20;14.63;;;4.40;99.90;;;;;;5073887;28;20065;-78
2023/12/05 01:53:21;;;;;;;24.70;15.33;;;4.40;99.90;;;;;;5074976;28;20058;-78
2023/12/05 01:55:48;;;;;;;23.13;14.73;;;4.50;99.90;;;;;;5074740;28;20400;-79
2023/12/05 01:58:15;;;;;;;25.77;16.17;;;4.40;99.90;;;;;;5074907;28;20496;-79
2023/12/05 02:00:42;;;;;;;26.27;16.70;;;4.40;99.90;;;;;;5073392;28;20029;-78
2023/12/05 02:03:08;;;;;;;24.47;15.73;;;4.40;99.90;;;;;;5074791;28;20048;-79
2023/12/05 02:05:35;;;;;;;23.53;16.07;;;4.40;99.90;;;;;;5074585;28;20036;-79
2023/12/05 02:08:01;;;;;;;24.00;15.63;;;4.40;99.90;;;;;;5074734;28;20025;-78
2023/12/05 02:10:26;;;;;;;23.57;15.67;;;4.40;99.90;;;;;;5073523;28;20024;-78
2023/12/05 02:12:52;;;;;;;25.33;15.60;;;4.40;99.90;;;;;;5075079;28;20021;-78
2023/12/05 02:15:18;;;;;;;20.93;14.30;;;4.40;99.90;;;;;;5072926;28;20024;-79
2023/12/05 02:18:03;;;;;;;25.20;16.67;;;4.50;99.90;;;;;;5073352;28;20159;-78
2023/12/05 02:20:40;;;;;;;23.20;15.23;;;4.50;99.90;;;;;;5073296;28;20480;-79
2023/12/05 02:23:11;;;;;;;22.90;14.53;;;4.40;99.90;;;;;;5073291;28;20035;-78
2023/12/05 02:26:02;;;;;;;25.33;16.20;;;4.40;99.90;;;;;;5056753;28;20033;-79
2023/12/05 02:28:28;;;;;;;24.80;15.80;;;4.40;99.90;;;;;;5056182;28;20045;-79
2023/12/05 02:30:53;;;;;;;23.27;15.43;;;4.40;99.90;;;;;;5072917;28;20048;-78
2023/12/05 02:33:19;;;;;;;22.90;15.13;;;4.50;99.90;;;;;;5074258;28;20392;-78
2023/12/05 02:35:47;;;;;;;25.20;16.53;;;4.40;99.90;;;;;;5074002;28;20055;-79
2023/12/05 02:38:22;;;;;;;22.33;14.60;;;4.40;99.90;;;;;;5074075;28;20041;-79
2023/12/05 02:40:56;;;;;;;23.90;14.83;;;4.40;99.90;;;;;;5073900;28;20029;-79
2023/12/05 02:43:39;;;;;;;25.90;16.37;;;4.40;99.90;;;;;;5073685;28;20033;-79
2023/12/05 02:46:07;;;;;;;24.07;15.80;;;4.40;99.90;;;;;;5074080;28;20033;-79
2023/12/05 02:48:34;;;;;;;24.90;15.27;;;4.40;99.90;;;;;;5074063;28;20036;-79
2023/12/05 02:51:00;;;;;;;21.27;13.77;;;4.40;99.90;;;;;;5073933;28;20029;-79
2023/12/05 02:53:26;;;;;;;26.23;16.83;;;4.40;99.90;;;;;;5073792;28;20058;-79
2023/12/05 02:55:51;;;;;;;25.60;15.83;;;4.40;99.90;;;;;;5055908;28;20496;-78
2023/12/05 02:58:17;;;;;;;25.37;15.83;;;4.40;99.90;;;;;;5073511;28;20488;-79
2023/12/05 03:00:42;;;;;;;25.93;16.63;;;4.40;99.90;;;;;;5073665;28;20033;-77
2023/12/05 03:03:08;;;;;;;24.10;16.07;;;4.50;99.90;;;;;;5055848;28;20059;-77
2023/12/05 03:05:34;;;;;;;26.20;16.57;;;4.50;99.90;;;;;;5073054;28;20029;-79
2023/12/05 03:07:59;;;;;;;25.90;15.80;;;4.40;99.90;;;;;;5072275;28;20377;-78
2023/12/05 03:10:25;;;;;;;24.53;15.90;;;4.30;99.90;;;;;;5072352;28;20494;-79
2023/12/05 03:12:51;;;;;;;26.10;16.17;;;4.40;99.90;;;;;;5071813;28;20024;-79
2023/12/05 03:15:16;;;;;;;25.27;16.20;;;4.40;99.90;;;;;;5073615;28;20039;-79
2023/12/05 03:17:42;;;;;;;26.70;15.73;;;4.30;99.90;;;;;;5072167;28;20392;-79
2023/12/05 03:20:08;;;;;;;24.47;16.10;;;4.30;99.90;;;;;;5071880;28;20512;-78
2023/12/05 03:22:33;;;;;;;26.50;16.70;;;4.40;99.90;;;;;;5073315;28;20033;-79
2023/12/05 03:24:59;;;;;;;30.93;18.37;;;4.40;99.90;;;;;;5073565;28;20025;-79
2023/12/05 03:27:25;;;;;;;25.87;16.67;;;4.30;99.90;;;;;;5073151;28;20435;-79
2023/12/05 03:29:50;;;;;;;26.43;15.83;;;4.20;99.90;;;;;;5071578;28;20064;-78
2023/12/05 03:32:16;;;;;;;25.83;17.13;;;4.30;99.90;;;;;;5073279;28;20674;-79
2023/12/05 03:34:41;;;;;;;27.67;17.53;;;4.40;99.90;;;;;;5071979;28;20504;-79
2023/12/05 03:37:07;;;;;;;25.93;16.07;;;4.30;99.90;;;;;;5073145;28;20071;-78
2023/12/05 03:39:33;;;;;;;29.17;18.17;;;4.30;99.90;;;;;;5073152;28;20033;-79
2023/12/05 03:41:58;;;;;;;28.23;17.67;;;4.30;99.90;;;;;;5072529;28;20029;-79
2023/12/05 03:44:24;;;;;;;26.80;16.83;;;4.30;99.90;;;;;;5071863;28;20063;-79
2023/12/05 03:46:50;;;;;;;26.53;16.20;;;4.30;99.90;;;;;;5073276;28;20032;-79
2023/12/05 03:49:15;;;;;;;27.37;16.20;;;4.20;99.90;;;;;;5072013;28;20032;-79
2023/12/05 03:51:41;;;;;;;25.33;16.00;;;4.20;99.90;;;;;;5071699;28;20032;-78
2023/12/05 03:54:07;;;;;;;26.27;16.73;;;4.20;99.90;;;;;;5072876;28;20029;-79
2023/12/05 03:56:33;;;;;;;25.90;16.50;;;4.20;99.90;;;;;;5071265;28;20037;-79
2023/12/05 03:58:59;;;;;;;27.50;16.83;;;4.20;99.90;;;;;;5072823;28;20036;-79
2023/12/05 04:01:24;;;;;;;26.53;16.63;;;4.20;99.90;;;;;;5073037;28;20512;-79
2023/12/05 04:03:50;;;;;;;28.60;16.93;;;4.20;99.90;;;;;;5073026;28;20056;-79
2023/12/05 04:06:20;;;;;;;26.67;16.53;;;4.20;99.90;;;;;;5072972;28;20498;-78
2023/12/05 04:08:47;;;;;;;25.70;14.57;;;4.20;99.90;;;;;;5071293;28;20033;-79
2023/12/05 04:11:13;;;;;;;27.03;15.43;;;4.20;99.90;;;;;;5054777;28;20028;-79
2023/12/05 04:13:38;;;;;;;28.13;16.97;;;4.10;99.90;;;;;;5055067;28;20373;-79
2023/12/05 04:16:06;;;;;;;26.27;16.33;;;4.20;99.90;;;;;;5083517;28;20032;-79
2023/12/05 04:18:32;;;;;;;29.20;17.73;;;4.20;99.90;;;;;;5074997;28;20500;-79
2023/12/05 04:20:57;;;;;;;28.43;16.50;;;4.10;99.90;;;;;;5058760;28;20083;-78
2023/12/05 04:23:23;;;;;;;25.73;16.07;;;4.20;99.90;;;;;;5077016;28;20051;-79
2023/12/05 04:25:49;;;;;;;27.90;17.10;;;4.10;99.90;;;;;;5074945;28;20036;-78
2023/12/05 04:28:14;;;;;;;26.17;16.07;;;4.20;99.90;;;;;;5078542;28;20028;-79
2023/12/05 04:30:40;;;;;;;26.10;15.03;;;4.20;99.90;;;;;;5095298;28;20066;-79
2023/12/05 04:33:06;;;;;;;27.07;16.10;;;4.20;99.90;;;;;;5095471;28;20059;-79
2023/12/05 04:35:31;;;;;;;26.77;15.97;;;4.20;99.90;;;;;;5078509;28;20040;-79
2023/12/05 04:37:57;;;;;;;25.47;16.00;;;4.20;99.90;;;;;;5096835;28;20104;-79
2023/12/05 04:40:22;;;;;;;28.87;16.83;;;4.20;99.90;;;;;;5096128;28;20047;-79
2023/12/05 04:42:49;;;;;;;25.67;16.23;;;4.20;99.90;;;;;;5096349;28;20032;-79
2023/12/05 04:45:14;;;;;;;25.93;16.37;;;4.20;99.90;;;;;;5078376;28;20040;-79
2023/12/05 04:47:40;;;;;;;25.97;15.73;;;4.20;99.90;;;;;;5078385;28;20506;-79
2023/12/05 04:50:06;;;;;;;28.47;16.10;;;4.20;99.90;;;;;;5096179;28;20393;-78
2023/12/05 04:52:32;;;;;;;28.00;17.03;;;4.20;99.90;;;;;;5078251;28;20036;-79
2023/12/05 04:54:58;;;;;;;27.87;17.77;;;4.20;99.90;;;;;;5096191;28;20032;-79
2023/12/05 04:57:23;;;;;;;26.97;15.77;;;4.20;99.90;;;;;;5077924;28;20123;-79
2023/12/05 04:59:49;;;;;;;26.00;15.53;;;4.20;99.90;;;;;;5078161;28;20032;-79
2023/12/05 05:02:17;;;;;;;27.37;16.27;;;4.10;99.90;;;;;;5094767;28;20028;-79
2023/12/05 05:04:43;;;;;;;26.03;15.20;;;4.20;99.90;;;;;;5096163;28;20044;-79
2023/12/05 05:07:08;;;;;;;26.60;16.50;;;4.20;99.90;;;;;;5080626;28;20537;-79
2023/12/05 05:09:36;;;;;;;24.70;15.33;;;4.20;99.90;;;;;;5079721;28;20089;-79
2023/12/05 05:12:03;;;;;;;28.33;16.63;;;4.20;99.90;;;;;;5095834;28;20035;-79
2023/12/05 05:14:29;;;;;;;27.73;16.97;;;4.20;99.90;;;;;;5095812;28;20024;-79
2023/12/05 05:16:54;;;;;;;28.33;16.13;;;4.30;99.90;;;;;;5095630;28;20110;-79
2023/12/05 05:19:20;;;;;;;28.63;16.33;;;4.30;99.90;;;;;;5077798;28;20028;-78
2023/12/05 05:21:46;;;;;;;26.90;16.70;;;4.30;99.90;;;;;;5094619;28;20522;-79
2023/12/05 05:24:11;;;;;;;25.73;16.13;;;4.30;99.90;;;;;;5077438;28;20035;-79
2023/12/05 05:26:37;;;;;;;25.40;15.70;;;4.20;99.90;;;;;;5077688;28;20036;-79
2023/12/05 05:29:03;;;;;;;24.70;14.90;;;4.20;99.90;;;;;;5094401;28;20028;-78
2023/12/05 05:31:28;;;;;;;23.97;14.70;;;4.20;99.90;;;;;;5075396;28;20025;-79
2023/12/05 05:33:54;;;;;;;22.23;14.40;;;4.20;99.90;;;;;;5074148;28;20025;-78
2023/12/05 05:36:19;;;;;;;24.80;14.93;;;4.20;99.90;;;;;;5075426;28;20087;-79
2023/12/05 05:38:45;;;;;;;24.53;15.43;;;4.30;99.90;;;;;;5075079;28;20448;-79
2023/12/05 05:41:11;;;;;;;23.30;13.77;;;4.20;99.90;;;;;;5073721;28;20039;-79
2023/12/05 05:43:37;;;;;;;23.83;13.87;;;4.20;99.90;;;;;;5074020;28;20040;-80
2023/12/05 05:46:03;;;;;;;25.33;14.80;;;4.20;99.90;;;;;;5073938;28;20059;-80
2023/12/05 05:48:28;;;;;;;24.63;15.07;;;4.20;99.90;;;;;;5074796;28;20035;-80
2023/12/05 05:50:54;;;;;;;27.73;16.17;;;4.20;99.90;;;;;;5073892;28;20032;-79
2023/12/05 05:53:19;;;;;;;25.33;14.83;;;4.20;99.90;;;;;;5073490;28;20028;-79
2023/12/05 05:55:45;;;;;;;24.00;14.13;;;4.20;99.90;;;;;;5073805;28;20438;-79
2023/12/05 05:58:11;;;;;;;24.60;15.77;;;4.20;99.90;;;;;;5075068;28;20638;-79
2023/12/05 06:00:37;;;;;;;24.73;15.13;;;4.30;99.90;;;;;;5075240;28;20032;-78
2023/12/05 06:03:03;;;;;;;25.17;15.63;;;4.20;99.90;;;;;;5073601;28;20024;-78
2023/12/05 06:05:29;;;;;;;24.57;14.97;;;4.20;99.90;;;;;;5074770;28;20025;-79
2023/12/05 06:07:55;;;;;;;25.37;14.77;;;4.20;99.90;;;;;;5073259;28;20031;-79
2023/12/05 06:10:21;;;;;;;25.40;16.00;;;4.20;99.90;;;;;;5075096;28;20111;-79
2023/12/05 06:12:46;;;;;;;27.90;16.60;;;4.20;99.90;;;;;;5056698;28;20028;-78
2023/12/05 06:15:12;;;;;;;23.50;14.20;;;4.20;99.90;;;;;;5074728;28;20033;-79
2023/12/05 06:17:38;;;;;;;24.83;15.13;;;4.20;99.90;;;;;;5073035;28;20124;-79
2023/12/05 06:20:05;;;;;;;25.17;15.57;;;4.20;99.90;;;;;;5073043;28;20111;-79
2023/12/05 06:22:31;;;;;;;28.23;14.50;;;4.20;99.90;;;;;;5074097;28;20055;-79
2023/12/05 06:24:57;;;;;;;27.00;15.50;;;4.20;99.90;;;;;;5054915;28;20033;-79
2023/12/05 06:27:22;;;;;;;25.17;14.47;;;4.20;99.90;;;;;;5036549;28;20033;-77
2023/12/05 06:29:48;;;;;;;24.87;14.87;;;4.20;99.90;;;;;;5070194;28;20447;-79
2023/12/05 06:32:14;;;;;;;22.73;14.73;;;4.20;99.90;;;;;;5061871;28;20074;-79
2023/12/05 06:34:39;;;;;;;26.57;15.47;;;4.20;99.90;;;;;;5073835;28;20036;-80
2023/12/05 06:37:05;;;;;;;28.07;16.77;;;4.30;99.90;;;;;;5073553;28;20512;-80
2023/12/05 06:39:31;;;;;;;24.47;15.60;;;4.30;99.90;;;;;;5072543;28;20025;-80
2023/12/05 06:41:56;;;;;;;23.37;15.23;;;4.30;99.90;;;;;;5072371;28;20058;-80
2023/12/05 06:44:22;;;;;;;25.47;15.27;;;4.30;99.90;;;;;;5072763;28;20170;-80
2023/12/05 06:46:47;;;;;;;23.40;14.47;;;4.30;99.90;;;;;;5073846;28;20036;-80
2023/12/05 06:49:13;;;;;;;26.93;15.53;;;4.30;99.90;;;;;;5073472;28;20033;-81
2023/12/05 06:51:40;;;;;;;22.97;15.00;;;4.20;99.90;;;;;;5072528;28;20040;-80
2023/12/05 06:54:05;;;;;;;23.03;14.90;;;4.20;99.90;;;;;;5072753;28;20398;-80
2023/12/05 06:56:31;;;;;;;24.23;14.83;;;4.20;99.90;;;;;;5073944;28;20029;-80
2023/12/05 06:58:58;;;;;;;25.33;15.47;;;4.20;99.90;;;;;;5072259;28;20127;-80
2023/12/05 07:01:23;;;;;;;25.77;15.60;;;4.20;99.90;;;;;;5072224;28;20029;-80
2023/12/05 07:03:49;;;;;;;26.50;15.73;;;4.20;99.90;;;;;;5073122;28;20090;-80
2023/12/05 07:06:15;;;;;;;25.77;16.30;;;4.20;99.90;;;;;;5055709;28;20051;-79
2023/12/05 07:08:41;;;;;;;29.20;16.97;;;4.20;99.90;;;;;;5073365;28;20529;-80
2023/12/05 07:11:06;;;;;;;23.77;15.07;;;4.20;99.90;;;;;;5055447;28;20110;-80
2023/12/05 07:13:32;;;;;;;28.70;16.27;;;4.20;99.90;;;;;;5073173;28;20036;-82
2023/12/05 07:15:58;;;;;;;26.27;15.87;;;4.10;99.90;;;;;;5071714;28;20058;-84
2023/12/05 07:18:23;;;;;;;26.73;15.47;;;4.20;99.90;;;;;;5054934;28;20090;-83
2023/12/05 07:20:49;;;;;;;27.33;16.53;;;4.20;99.90;;;;;;5071871;28;20396;-83
2023/12/05 07:23:15;;;;;;;25.13;15.27;;;4.10;99.90;;;;;;5073181;28;20124;-83
2023/12/05 07:25:41;;;;;;;26.13;14.87;;;4.20;99.90;;;;;;5071797;28;20536;-82
2023/12/05 07:28:06;;;;;;;25.77;16.57;;;4.20;99.90;;;;;;5071819;28;20024;-81
2023/12/05 07:30:32;;;;;;;30.30;18.20;;;4.20;99.90;;;;;;5067602;28;20051;-81
2023/12/05 07:32:57;;;;;;;26.80;16.60;;;4.10;99.90;;;;;;5092577;28;20028;-82
2023/12/05 07:35:23;;;;;;;25.63;15.87;;;4.20;99.90;;;;;;5092019;28;20028;-82
2023/12/05 07:37:49;;;;;;;26.77;16.87;;;4.20;99.90;;;;;;5091966;28;20051;-81
2023/12/05 07:40:15;;;;;;;26.60;16.17;;;4.10;99.90;;;;;;5092003;28;20028;-82
2023/12/05 07:42:41;;;;;;;27.13;16.50;;;4.20;99.90;;;;;;5093546;28;20028;-82
2023/12/05 07:45:07;;;;;;;27.80;17.37;;;4.20;99.90;;;;;;5093349;28;20032;-81
2023/12/05 07:47:33;;;;;;;29.33;16.40;;;4.20;99.90;;;;;;5091665;28;20130;-81
2023/12/05 07:49:59;;;;;;;28.73;16.43;;;4.20;99.90;;;;;;5093312;28;20032;-81
2023/12/05 07:52:25;;;;;;;32.60;18.80;;;4.20;99.90;;;;;;5092870;28;20134;-82
2023/12/05 07:54:51;;;;;;;29.47;18.23;;;4.20;99.90;;;;;;5091882;28;20032;-81
2023/12/05 07:57:22;;;;;;;30.43;18.53;;;4.10;99.90;;;;;;5093029;28;20063;-81
2023/12/05 07:59:48;;;;;;;29.00;18.13;;;4.20;99.90;;;;;;5091796;28;20032;-81
2023/12/05 08:02:14;;;;;;;32.43;20.57;;;4.20;99.90;;;;;;5091443;28;20562;-81
2023/12/05 08:04:40;;;;;;;35.17;19.97;;;4.20;99.90;;;;;;5091649;28;20115;-82
2023/12/05 08:07:05;;;;;;;35.70;21.10;;;4.20;99.90;;;;;;5093059;28;20043;-81
2023/12/05 08:09:31;;;;;;;33.17;20.07;;;4.20;99.90;;;;;;5091693;28;20125;-82
2023/12/05 08:11:56;;;;;;;32.03;19.93;;;4.20;99.90;;;;;;5092523;28;20038;-81
2023/12/05 08:14:22;;;;;;;39.07;20.70;;;4.10;99.90;;;;;;5092850;28;20024;-81
2023/12/05 08:16:48;;;;;;;31.97;19.33;;;4.20;99.90;;;;;;5091399;28;20020;-81
2023/12/05 08:19:14;;;;;;;34.63;20.27;;;4.20;99.90;;;;;;5091517;28;20154;-81
2023/12/05 08:21:40;;;;;;;32.17;19.40;;;4.10;99.90;;;;;;5091481;28;20024;-81
2023/12/05 08:24:05;;;;;;;33.57;19.03;;;4.20;99.90;;;;;;5074697;28;20043;-82
2023/12/05 08:26:32;;;;;;;34.60;18.30;;;4.20;99.90;;;;;;5092824;28;20028;-81
2023/12/05 08:28:58;;;;;;;32.43;19.53;;;4.20;99.90;;;;;;5092607;28;20036;-82
2023/12/05 08:31:24;;;;;;;34.93;20.47;;;4.20;99.90;;;;;;5093116;28;20040;-81
2023/12/05 08:33:50;;;;;;;32.53;19.90;;;4.20;99.90;;;;;;5092534;28;20503;-82
2023/12/05 08:36:15;;;;;;;33.17;19.33;;;4.10;99.90;;;;;;5091463;28;20036;-82
2023/12/05 08:38:41;;;;;;;35.37;21.67;;;4.10;99.90;;;;;;5091698;28;20043;-83
2023/12/05 08:41:07;;;;;;;33.13;20.07;;;4.10;99.90;;;;;;5091620;28;20039;-83
2023/12/05 08:43:32;;;;;;;36.53;21.40;;;4.10;99.90;;;;;;5091421;28;20411;-83
2023/12/05 08:45:59;;;;;;;34.00;20.03;;;4.10;99.90;;;;;;5091021;28;20040;-83
2023/12/05 08:48:25;;;;;;;33.13;19.03;;;4.10;99.90;;;;;;5091395;28;20063;-83
2023/12/05 08:50:51;;;;;;;32.13;19.90;;;4.00;99.90;;;;;;5091386;28;20059;-83
2023/12/05 08:53:17;;;;;;;31.30;18.90;;;4.10;99.90;;;;;;5091474;28;20161;-83
2023/12/05 08:55:43;;;;;;;31.93;18.93;;;4.00;99.90;;;;;;5091108;28;20123;-83
2023/12/05 08:58:09;;;;;;;34.10;20.50;;;4.00;99.90;;;;;;5091283;28;20024;-83
2023/12/05 09:00:35;;;;;;;33.13;20.07;;;4.10;99.90;;;;;;5091132;28;20026;-83
2023/12/05 09:03:01;;;;;;;28.57;18.20;;;4.10;99.90;;;;;;5091294;28;20104;-82
2023/12/05 09:05:26;;;;;;;29.53;17.73;;;4.10;99.90;;;;;;5095482;28;20058;-83
2023/12/05 09:07:52;;;;;;;29.87;18.57;;;4.10;99.90;;;;;;5096200;28;20043;-82
2023/12/05 09:10:18;;;;;;;28.33;17.60;;;4.00;99.90;;;;;;5096356;28;20051;-83
2023/12/05 09:12:44;;;;;;;28.67;17.30;;;4.10;99.90;;;;;;5094879;28;20102;-83
2023/12/05 09:15:10;;;;;;;26.87;16.67;;;4.10;99.90;;;;;;5095896;28;20032;-82
2023/12/05 09:17:36;;;;;;;29.83;17.80;;;4.10;99.90;;;;;;5094570;28;20069;-82
2023/12/05 09:20:03;;;;;;;30.57;18.23;;;4.10;99.90;;;;;;5094851;28;20020;-82
2023/12/05 09:22:28;;;;;;;26.83;16.17;;;4.10;99.90;;;;;;5094777;28;20484;-83
2023/12/05 09:24:54;;;;;;;27.27;16.13;;;4.10;99.90;;;;;;5095022;28;20028;-82
2023/12/05 09:27:20;;;;;;;27.27;16.53;;;4.10;99.90;;;;;;5094416;28;20590;-83
2023/12/05 09:29:46;;;;;;;32.03;18.67;;;4.10;99.90;;;;;;5094093;28;20054;-83
2023/12/05 09:32:11;;;;;;;28.57;17.43;;;4.10;99.90;;;;;;5095030;28;20045;-82
2023/12/05 09:34:37;;;;;;;27.93;17.00;;;4.10;99.90;;;;;;5095953;28;20047;-82
2023/12/05 09:37:03;;;;;;;29.03;17.03;;;4.10;99.90;;;;;;5094585;28;20028;-83
2023/12/05 09:39:31;;;;;;;29.17;17.27;;;4.10;99.90;;;;;;5095300;28;20565;-83
2023/12/05 09:42:01;;;;;;;27.47;16.27;;;4.10;99.90;;;;;;5093994;28;20024;-83
2023/12/05 09:44:31;;;;;;;27.63;15.27;;;4.10;99.90;;;;;;5095440;28;20032;-82
2023/12/05 09:46:58;;;;;;;28.57;17.23;;;4.10;99.90;;;;;;5077345;28;20028;-82
2023/12/05 09:49:27;;;;;;;29.70;17.47;;;4.10;99.90;;;;;;5095498;28;20111;-82
2023/12/05 09:51:57;;;;;;;28.17;16.87;;;4.20;99.90;;;;;;5095407;28;20032;-82
2023/12/05 09:54:25;;;;;;;28.77;17.27;;;4.10;99.90;;;;;;5095507;28;20032;-83
2023/12/05 09:56:57;;;;;;;26.37;15.77;;;4.10;99.90;;;;;;5095680;28;20104;-83
2023/12/05 09:59:23;;;;;;;25.13;15.37;;;4.20;99.90;;;;;;5093855;28;20062;-83
2023/12/05 10:01:54;;;;;;;26.77;17.13;;;4.20;99.90;;;;;;5095140;28;20108;-83
2023/12/05 10:04:22;;;;;;;26.93;15.47;;;4.10;99.90;;;;;;5094061;28;20028;-83
2023/12/05 10:06:48;;;;;;;26.73;16.27;;;4.20;99.90;;;;;;5095259;28;20024;-83
2023/12/05 10:09:15;;;;;;;26.33;16.90;;;4.20;99.90;;;;;;5093764;28;20058;-82
2023/12/05 10:11:41;;;;;;;24.77;14.40;;;4.20;99.90;;;;;;5095140;28;20039;-82
2023/12/05 10:14:07;;;;;;;25.70;15.77;;;4.20;99.90;;;;;;5095057;28;20468;-83
2023/12/05 10:16:34;;;;;;;23.90;14.53;;;4.20;99.90;;;;;;5093501;28;20043;-82
2023/12/05 10:18:59;;;;;;;25.00;15.33;;;4.10;99.90;;;;;;5094822;28;20036;-83
2023/12/05 10:21:25;;;;;;;24.43;14.47;;;4.20;99.90;;;;;;5093494;28;20024;-82
2023/12/05 10:23:51;;;;;;;26.17;15.60;;;4.20;99.90;;;;;;5094875;28;20059;-82
2023/12/05 10:26:17;;;;;;;23.40;14.60;;;4.20;99.90;;;;;;5076585;28;20055;-83
2023/12/05 10:28:50;;;;;;;25.97;16.10;;;4.20;99.90;;;;;;5094406;28;20165;-83
2023/12/05 10:31:19;;;;;;;26.75;15.60;;;4.10;99.90;;;;;;5093359;28;20044;-83
2023/12/05 10:33:46;;;;;;;25.07;15.00;;;4.20;99.90;;;;;;5093342;28;20116;-83
2023/12/05 10:36:12;;;;;;;26.13;15.77;;;4.20;99.90;;;;;;5093261;28;20404;-82
2023/12/05 10:38:41;;;;;;;28.63;16.00;;;4.20;99.90;;;;;;5093056;28;20056;-82
2023/12/05 10:41:06;;;;;;;25.53;14.67;;;4.20;99.90;;;;;;5092667;28;20032;-83
2023/12/05 10:43:32;;;;;;;23.57;14.17;;;4.20;99.90;;;;;;5092996;28;20502;-82
2023/12/05 10:46:03;;;;;;;25.07;14.77;;;4.20;99.90;;;;;;5094298;28;20036;-83
2023/12/05 10:48:29;;;;;;;25.87;15.23;;;4.20;99.90;;;;;;5092921;28;20046;-82
2023/12/05 10:50:56;;;;;;;23.03;14.23;;;4.30;99.90;;;;;;5092935;28;20028;-83
2023/12/05 10:53:22;;;;;;;25.27;14.30;;;4.30;99.90;;;;;;5094586;28;20043;-83
2023/12/05 10:55:48;;;;;;;26.13;15.67;;;4.30;99.90;;;;;;5093971;28;20039;-82
2023/12/05 10:58:14;;;;;;;28.93;16.17;;;4.30;99.90;;;;;;5094206;28;20468;-82
2023/12/05 11:00:40;;;;;;;29.43;16.97;;;4.20;99.90;;;;;;5094050;28;20036;-83
2023/12/05 11:03:06;;;;;;;30.27;18.40;;;4.20;99.90;;;;;;5093958;28;20480;-82
2023/12/05 11:05:34;;;;;;;29.50;16.90;;;4.20;99.90;;;;;;5092486;28;20415;-83
2023/12/05 11:08:00;;;;;;;27.67;16.80;;;4.20;99.90;;;;;;5094027;28;20036;-83
2023/12/05 11:10:27;;;;;;;31.73;18.57;;;4.20;99.90;;;;;;5093877;28;20043;-83
2023/12/05 11:12:54;;;;;;;32.73;18.20;;;4.20;99.90;;;;;;5092629;28;20525;-82
2023/12/05 11:15:34;;;;;;;30.17;18.10;;;4.20;99.90;;;;;;5092652;28;20036;-83
2023/12/05 11:18:04;;;;;;;34.53;19.00;;;4.10;99.90;;;;;;5092562;28;20036;-82
2023/12/05 11:20:46;;;;;;;33.87;18.87;;;4.20;99.90;;;;;;5075764;28;20107;-82
2023/12/05 11:23:36;;;;;;;32.47;17.23;;;4.20;99.90;;;;;;5093775;28;20028;-83
2023/12/05 11:26:34;;;;;;;31.47;18.27;;;4.20;99.90;;;;;;5056094;28;20032;-82
2023/12/05 11:29:06;;;;;;;30.10;17.37;;;4.20;99.90;;;;;;5092273;28;20036;-82
2023/12/05 11:31:55;;;;;;;31.03;17.50;;;4.10;99.90;;;;;;5072502;28;20055;-83
2023/12/05 11:34:48;;;;;;;30.73;17.57;;;4.20;99.90;;;;;;5071834;28;20461;-83
2023/12/05 11:37:35;;;;;;;31.97;17.80;;;4.20;99.90;;;;;;5073555;28;20065;-83
2023/12/05 11:40:01;;;;;;;32.07;17.70;;;4.20;99.90;;;;;;5055133;28;20032;-83
2023/12/05 11:42:27;;;;;;;31.57;18.03;;;4.20;99.90;;;;;;5072620;28;20547;-83
2023/12/05 11:44:53;;;;;;;29.80;16.77;;;4.30;99.90;;;;;;5071665;28;20056;-83
2023/12/05 11:47:24;;;;;;;32.13;18.17;;;4.20;99.90;;;;;;5073229;28;20394;-83
2023/12/05 11:49:55;;;;;;;31.50;18.07;;;4.30;99.90;;;;;;5071723;28;20127;-83
2023/12/05 11:52:25;;;;;;;27.10;15.83;;;4.30;99.90;;;;;;5071688;28;20369;-83
2023/12/05 11:54:53;;;;;;;31.43;17.73;;;4.30;99.90;;;;;;5073031;28;20040;-83
2023/12/05 11:57:21;;;;;;;31.97;16.43;;;4.30;99.90;;;;;;5071866;28;20108;-82
2023/12/05 11:59:50;;;;;;;23.77;14.63;;;4.30;99.90;;;;;;5072979;28;20106;-82
2023/12/05 12:02:36;;;;;;;25.13;14.87;;;4.30;99.90;;;;;;5072847;28;20044;-83
2023/12/05 12:05:05;;;;;;;25.13;14.80;;;4.30;99.90;;;;;;5073199;28;20162;-83
2023/12/05 12:07:58;;;;;;;23.30;14.20;;;4.30;99.90;;;;;;5072984;28;20045;-82
2023/12/05 12:10:26;;;;;;;23.53;13.80;;;4.30;99.90;;;;;;5054781;28;20083;-83
2023/12/05 12:12:52;;;;;;;26.57;14.60;;;4.30;99.90;;;;;;5071590;28;20068;-83
2023/12/05 12:15:19;;;;;;;25.60;15.63;;;4.30;99.90;;;;;;5071616;28;20036;-83
2023/12/05 12:17:45;;;;;;;27.50;15.70;;;4.30;99.90;;;;;;5072863;28;20037;-83
2023/12/05 12:20:12;;;;;;;27.80;15.67;;;4.30;99.90;;;;;;5071446;28;20040;-83
2023/12/05 12:22:38;;;;;;;33.97;19.20;;;4.30;99.90;;;;;;5071757;28;20051;-83
2023/12/05 12:25:06;;;;;;;36.93;20.23;;;4.30;99.90;;;;;;5071369;28;20425;-82
2023/12/05 12:27:35;;;;;;;36.47;20.10;;;4.20;99.90;;;;;;5071365;28;20537;-83
2023/12/05 12:30:01;;;;;;;38.03;20.40;;;4.20;99.90;;;;;;5071298;28;20496;-83
2023/12/05 12:32:27;;;;;;;37.53;19.40;;;4.20;99.90;;;;;;5055057;28;20032;-83
2023/12/05 12:34:52;;;;;;;37.33;20.47;;;4.20;99.90;;;;;;5072756;28;20086;-83